Time;durP1;ratioP1;P1;durP2;ratioP2;P2;SDS_P1;SDS_P2;PMS_P1;PMS_P2;Temp;Humidity;BMP_temperature;BMP_pressure;BME280_temperature;BME280_humidity;BME280_pressure;Samples;Min_cycle;Max_cycle;Signal;HPM_P1;HPM_P2
2022/03/09 00:02:14;;;;;;;33.95;13.13;;;;;;;11.25;72.27;101140.19;7385894;19;20015;-80
2022/03/09 00:04:41;;;;;;;26.88;11.93;;;;;;;11.25;72.07;101134.09;7393011;19;20066;-81
2022/03/09 00:07:09;;;;;;;32.58;13.90;;;;;;;11.24;72.42;101138.53;7386289;19;20499;-81
2022/03/09 00:09:36;;;;;;;32.90;15.25;;;;;;;11.25;72.91;101137.56;7386151;19;20209;-80
2022/03/09 00:12:04;;;;;;;34.85;14.52;;;;;;;11.24;72.83;101135.88;7389571;19;20025;-81
2022/03/09 00:14:31;;;;;;;29.63;13.35;;;;;;;11.25;72.86;101127.03;7388890;19;20015;-81
2022/03/09 00:16:58;;;;;;;29.83;13.05;;;;;;;11.28;73.10;101142.50;7386971;19;20010;-81
2022/03/09 00:19:27;;;;;;;32.92;14.15;;;;;;;11.28;73.18;101136.41;7389182;19;20022;-81
2022/03/09 00:21:53;;;;;;;31.90;14.90;;;;;;;11.32;73.97;101141.25;7386979;19;20034;-82
2022/03/09 00:24:21;;;;;;;24.00;11.73;;;;;;;11.31;74.20;101136.97;7388509;19;20011;-81
2022/03/09 00:26:49;;;;;;;29.75;12.07;;;;;;;11.35;74.02;101134.84;7386935;19;20078;-81
2022/03/09 00:29:17;;;;;;;22.98;10.40;;;;;;;11.36;74.06;101141.78;7389821;19;20034;-80
2022/03/09 00:31:44;;;;;;;27.42;12.07;;;;;;;11.38;74.85;101138.00;7385782;19;20052;-81
2022/03/09 00:34:11;;;;;;;31.50;12.82;;;;;;;11.38;75.19;101134.53;7385641;19;20070;-81
2022/03/09 00:36:38;;;;;;;26.58;11.00;;;;;;;11.40;75.29;101137.84;7389431;19;20701;-81
2022/03/09 00:39:05;;;;;;;22.77;10.77;;;;;;;11.39;75.04;101129.13;7384094;19;20010;-79
2022/03/09 00:41:32;;;;;;;22.83;9.57;;;;;;;11.40;75.48;101136.06;7387687;19;20018;-81
2022/03/09 00:43:59;;;;;;;18.10;8.68;;;;;;;11.41;74.80;101136.88;7389611;19;20026;-81
2022/03/09 00:46:26;;;;;;;19.27;8.82;;;;;;;11.41;75.52;101132.44;7389471;19;20317;-81
2022/03/09 00:48:53;;;;;;;18.30;7.85;;;;;;;11.41;76.03;101129.81;7385687;19;20007;-80
2022/03/09 00:51:21;;;;;;;20.58;8.32;;;;;;;11.44;75.85;101126.03;7384311;19;20488;-81
2022/03/09 00:53:48;;;;;;;18.75;8.60;;;;;;;11.42;76.08;101126.19;7389076;19;20025;-81
2022/03/09 00:56:15;;;;;;;23.95;10.25;;;;;;;11.44;76.57;101126.88;7384502;19;20259;-81
2022/03/09 00:58:42;;;;;;;22.13;8.95;;;;;;;11.45;76.91;101133.78;7385920;19;20018;-81
2022/03/09 01:01:10;;;;;;;19.38;7.88;;;;;;;11.45;76.95;101131.16;7384576;19;20011;-81
2022/03/09 01:03:40;;;;;;;21.75;9.02;;;;;;;11.46;77.11;101130.19;7385381;19;20030;-81
2022/03/09 01:06:07;;;;;;;24.05;9.55;;;;;;;11.49;77.25;101136.94;7384942;19;20017;-80
2022/03/09 01:08:35;;;;;;;19.45;8.55;;;;;;;11.49;77.29;101131.69;7388956;19;20018;-80
2022/03/09 01:11:03;;;;;;;19.40;8.38;;;;;;;11.48;77.09;101137.91;7387308;19;20399;-81
2022/03/09 01:13:30;;;;;;;20.98;8.60;;;;;;;11.49;77.20;101129.88;7384484;19;20014;-81
2022/03/09 01:15:57;;;;;;;17.35;7.55;;;;;;;11.48;77.14;101130.84;7386488;19;20014;-81
2022/03/09 01:18:25;;;;;;;24.85;9.18;;;;;;;11.46;77.39;101132.81;7380971;19;20538;-81
2022/03/09 01:20:52;;;;;;;19.15;8.77;;;;;;;11.48;77.84;101130.00;7387487;19;20368;-81
2022/03/09 01:23:19;;;;;;;18.25;8.25;;;;;;;11.46;77.95;101126.72;7384252;19;20404;-81
2022/03/09 01:25:46;;;;;;;21.42;10.02;;;;;;;11.46;78.09;101129.34;7383071;19;20103;-81
2022/03/09 01:28:13;;;;;;;20.77;9.85;;;;;;;11.45;78.56;101130.31;7382583;19;20007;-81
2022/03/09 01:30:40;;;;;;;19.08;8.40;;;;;;;11.44;78.71;101123.41;7383510;19;20010;-82
2022/03/09 01:33:07;;;;;;;17.67;8.18;;;;;;;11.44;78.79;101118.97;7382729;19;20026;-82
2022/03/09 01:35:34;;;;;;;16.50;7.45;;;;;;;11.44;78.66;101129.50;7386976;19;20009;-81
2022/03/09 01:38:01;;;;;;;21.02;9.50;;;;;;;11.43;78.97;101116.47;7383182;19;20022;-79
2022/03/09 01:40:29;;;;;;;16.23;7.68;;;;;;;11.44;79.21;101116.31;7384826;19;20025;-82
2022/03/09 01:42:56;;;;;;;17.55;7.68;;;;;;;11.45;79.09;101114.53;7383164;19;20012;-81
2022/03/09 01:45:25;;;;;;;19.83;8.57;;;;;;;11.43;79.48;101113.84;7384123;19;20427;-81
2022/03/09 01:47:52;;;;;;;22.50;10.68;;;;;;;11.45;79.61;101111.88;7380957;19;20103;-82
2022/03/09 01:50:19;;;;;;;19.33;7.88;;;;;;;11.45;79.79;101114.53;7384558;19;20095;-81
2022/03/09 01:52:46;;;;;;;18.70;8.13;;;;;;;11.47;80.04;101105.50;7384202;19;20018;-81
2022/03/09 01:55:14;;;;;;;20.20;8.73;;;;;;;11.49;80.01;101113.22;7386040;19;20013;-81
2022/03/09 01:57:41;;;;;;;19.33;8.25;;;;;;;11.48;80.09;101111.56;7381760;19;20025;-82
2022/03/09 02:00:10;;;;;;;19.35;8.88;;;;;;;11.51;79.81;101112.13;7385655;19;20038;-81
2022/03/09 02:02:37;;;;;;;23.05;10.02;;;;;;;11.51;80.15;101116.56;7378420;19;20081;-80
2022/03/09 02:05:06;;;;;;;16.77;7.40;;;;;;;11.50;80.18;101121.00;7383746;19;20022;-80
2022/03/09 02:10:11;;;;;;;16.13;7.43;;;;;;;11.50;79.80;101118.34;7385075;19;20384;-80
2022/03/09 02:12:38;;;;;;;19.45;8.80;;;;;;;11.52;79.88;101118.22;7382797;19;20038;-82
2022/03/09 02:15:07;;;;;;;22.30;10.45;;;;;;;11.51;80.09;101125.28;7383152;19;20011;-81
2022/03/09 02:17:35;;;;;;;24.70;10.27;;;;;;;11.51;80.86;101125.28;7378323;19;20007;-82
2022/03/09 02:20:02;;;;;;;20.17;9.57;;;;;;;11.53;80.56;101120.69;7381133;19;20015;-81
2022/03/09 02:22:40;;;;;;;19.35;8.20;;;;;;;11.55;80.68;101115.25;7385432;19;20028;-80
2022/03/09 02:25:11;;;;;;;19.45;7.57;;;;;;;11.56;80.77;101124.84;7384526;19;20014;-81
2022/03/09 02:27:38;;;;;;;22.40;10.23;;;;;;;11.52;80.56;101124.31;7383822;19;20053;-82
2022/03/09 02:30:07;;;;;;;19.98;8.00;;;;;;;11.54;81.58;101124.16;7382048;19;20361;-81
2022/03/09 02:32:45;;;;;;;19.38;8.00;;;;;;;11.55;81.14;101129.28;7385115;19;20010;-80
2022/03/09 02:35:14;;;;;;;21.95;9.52;;;;;;;11.50;81.40;101121.00;7379706;19;20479;-80
2022/03/09 02:37:42;;;;;;;15.80;6.60;;;;;;;11.51;81.41;101122.66;7382086;19;20308;-80
2022/03/09 02:40:12;;;;;;;14.25;7.40;;;;;;;11.50;81.31;101123.63;7384274;19;20014;-81
2022/03/09 02:42:40;;;;;;;19.95;10.15;;;;;;;11.54;81.64;101127.63;7380483;19;20014;-80
2022/03/09 02:45:09;;;;;;;12.98;6.55;;;;;;;11.51;81.58;101117.38;7382880;19;20479;-81
2022/03/09 02:47:41;;;;;;;16.90;5.50;;;;;;;11.52;81.75;101120.84;7379105;19;20436;-82
2022/03/09 02:50:13;;;;;;;12.65;5.88;;;;;;;11.51;81.62;101121.81;7379782;19;20034;-81
2022/03/09 02:52:42;;;;;;;21.55;7.07;;;;;;;11.51;81.95;101117.38;7382124;19;20711;-82
2022/03/09 02:55:10;;;;;;;12.90;6.28;;;;;;;11.53;81.84;101120.69;7380963;19;20458;-81
2022/03/09 02:57:38;;;;;;;14.77;7.50;;;;;;;11.55;81.92;101116.09;7383735;19;20198;-81
2022/03/09 03:00:08;;;;;;;11.50;5.57;;;;;;;11.54;82.28;101119.72;7379369;19;20046;-81
2022/03/09 03:02:37;;;;;;;9.70;5.47;;;;;;;11.52;82.11;101105.88;7378321;19;20134;-81
2022/03/09 03:05:06;;;;;;;12.95;6.13;;;;;;;11.56;82.46;101119.56;7380271;19;20021;-81
2022/03/09 03:07:34;;;;;;;15.00;5.70;;;;;;;11.55;82.21;101121.38;7382657;19;20031;-82
2022/03/09 03:10:01;;;;;;;11.82;5.72;;;;;;;11.54;81.99;101124.16;7380199;19;20036;-81
2022/03/09 03:12:28;;;;;;;12.40;5.55;;;;;;;11.55;82.17;101115.25;7382995;19;20014;-81
2022/03/09 03:14:55;;;;;;;14.98;6.25;;;;;;;11.55;82.87;101118.72;7385644;19;20018;-81
2022/03/09 03:17:22;;;;;;;16.08;8.00;;;;;;;11.56;82.58;101116.94;7387950;19;20031;-81
2022/03/09 03:19:49;;;;;;;19.27;8.93;;;;;;;11.55;82.74;101116.09;7386262;19;20026;-82
2022/03/09 03:22:17;;;;;;;12.35;5.50;;;;;;;11.54;82.88;101124.97;7390136;19;20082;-80
2022/03/09 03:24:44;;;;;;;14.25;6.50;;;;;;;11.54;82.83;101122.34;7389030;19;20049;-81
2022/03/09 03:27:11;;;;;;;14.05;5.90;;;;;;;11.54;83.36;101113.59;7387143;19;20033;-82
2022/03/09 03:29:38;;;;;;;14.02;5.10;;;;;;;11.51;82.78;101108.66;7386684;19;20010;-80
2022/03/09 03:32:07;;;;;;;12.00;5.55;;;;;;;11.51;83.11;101111.28;7390002;19;20014;-81
2022/03/09 03:34:34;;;;;;;17.13;6.38;;;;;;;11.50;83.39;101102.56;7386963;19;20070;-81
2022/03/09 03:37:01;;;;;;;11.68;6.47;;;;;;;11.50;83.79;101101.72;7388112;19;20138;-82
2022/03/09 03:39:28;;;;;;;14.60;5.00;;;;;;;11.51;84.19;101103.38;7385325;19;20014;-81
2022/03/09 03:41:55;;;;;;;11.82;5.28;;;;;;;11.51;83.68;101093.66;7387966;19;20018;-81
2022/03/09 03:44:22;;;;;;;14.15;6.45;;;;;;;11.51;84.11;101093.66;7392175;19;20101;-80
2022/03/09 03:46:49;;;;;;;12.88;6.55;;;;;;;11.50;83.95;101086.75;7385095;19;20031;-81
2022/03/09 03:49:16;;;;;;;13.65;5.80;;;;;;;11.51;83.80;101088.41;7387157;19;20010;-81
2022/03/09 03:51:43;;;;;;;10.43;5.13;;;;;;;11.51;84.00;101085.78;7384464;19;20026;-81
2022/03/09 03:54:10;;;;;;;12.00;6.00;;;;;;;11.52;84.67;101081.31;7390591;19;20090;-81
2022/03/09 03:56:37;;;;;;;13.52;5.72;;;;;;;11.48;85.17;101079.94;7384176;19;20007;-81
2022/03/09 03:59:04;;;;;;;14.15;7.35;;;;;;;11.45;84.76;101073.19;7388442;19;20043;-81
2022/03/09 04:01:32;;;;;;;12.50;5.93;;;;;;;11.42;85.16;101073.50;7385573;19;20018;-82
2022/03/09 04:04:00;;;;;;;15.25;5.90;;;;;;;11.42;85.12;101070.88;7388005;19;20034;-80
2022/03/09 04:06:28;;;;;;;12.05;5.22;;;;;;;11.46;85.51;101074.03;7386427;19;20011;-80
2022/03/09 04:08:56;;;;;;;12.27;5.93;;;;;;;11.46;85.66;101085.41;7386468;19;20378;-81
2022/03/09 04:11:23;;;;;;;11.32;5.25;;;;;;;11.45;85.35;101082.91;7388917;19;20629;-80
2022/03/09 04:13:50;;;;;;;24.25;11.85;;;;;;;11.44;85.57;101086.50;7387413;19;20019;-80
2022/03/09 04:16:17;;;;;;;18.70;7.35;;;;;;;11.46;85.93;101088.03;7385390;19;20404;-80
2022/03/09 04:18:44;;;;;;;12.30;5.60;;;;;;;11.48;85.55;101090.50;7385302;19;20080;-79
2022/03/09 04:21:11;;;;;;;16.80;4.90;;;;;;;11.45;85.30;101102.19;7387546;19;20018;-80
2022/03/09 04:23:38;;;;;;;10.57;4.45;;;;;;;11.46;85.44;101100.38;7390071;19;20475;-80
2022/03/09 04:26:08;;;;;;;13.45;6.70;;;;;;;11.44;85.20;101100.50;7387583;19;20022;-80
2022/03/09 04:28:35;;;;;;;11.93;5.40;;;;;;;11.46;85.43;101101.22;7386034;19;20031;-81
2022/03/09 04:31:03;;;;;;;13.30;4.93;;;;;;;11.48;85.42;101099.22;7390161;19;20014;-81
2022/03/09 04:33:30;;;;;;;10.57;4.40;;;;;;;11.49;85.46;101097.41;7383841;19;20459;-80
2022/03/09 04:35:58;;;;;;;14.23;6.20;;;;;;;11.48;85.89;101101.88;7387684;19;20018;-81
2022/03/09 04:38:26;;;;;;;11.20;5.40;;;;;;;11.48;85.80;101093.13;7383997;19;20521;-81
2022/03/09 04:40:53;;;;;;;8.05;4.05;;;;;;;11.46;86.09;101090.66;7388719;19;20082;-81
2022/03/09 04:43:20;;;;;;;11.75;4.47;;;;;;;11.45;85.70;101089.00;7385270;19;20353;-81
2022/03/09 04:45:47;;;;;;;15.05;5.38;;;;;;;11.42;85.83;101078.78;7390615;19;20006;-81
2022/03/09 04:48:14;;;;;;;17.48;5.43;;;;;;;11.45;86.62;101086.38;7381302;19;20011;-81
2022/03/09 04:50:41;;;;;;;22.30;11.25;;;;;;;11.46;86.06;101092.47;7388039;19;20022;-81
2022/03/09 04:53:08;;;;;;;17.58;8.32;;;;;;;11.47;86.18;101086.22;7381828;19;20366;-81
2022/03/09 04:55:35;;;;;;;18.55;7.22;;;;;;;11.45;86.76;101093.44;7385980;19;20018;-81
2022/03/09 04:58:02;;;;;;;12.07;5.60;;;;;;;11.45;86.07;101094.28;7384463;19;20082;-80
2022/03/09 05:00:30;;;;;;;11.48;5.68;;;;;;;11.47;86.23;101096.75;7385046;19;20029;-80
2022/03/09 05:02:57;;;;;;;13.98;6.18;;;;;;;11.43;86.16;101106.75;7382639;19;20014;-80
2022/03/09 05:05:24;;;;;;;17.40;7.07;;;;;;;11.45;86.47;101109.25;7382755;19;20006;-80
2022/03/09 05:07:51;;;;;;;40.80;12.45;;;;;;;11.44;86.56;101112.84;7384120;19;20090;-80
2022/03/09 05:10:18;;;;;;;15.85;6.07;;;;;;;11.45;86.83;101110.09;7382865;19;20074;-81
2022/03/09 05:12:45;;;;;;;15.63;6.82;;;;;;;11.46;86.66;101095.94;7384865;19;20018;-81
2022/03/09 05:15:13;;;;;;;11.07;6.47;;;;;;;11.46;86.79;101097.75;7384150;19;20086;-80
2022/03/09 05:17:43;;;;;;;14.30;5.43;;;;;;;11.46;86.47;101095.94;7379964;19;20082;-81
2022/03/09 05:20:12;;;;;;;14.43;4.90;;;;;;;11.45;86.19;101096.91;7380748;19;20434;-81
2022/03/09 05:22:39;;;;;;;13.23;5.45;;;;;;;11.47;86.55;101102.88;7382948;19;20014;-81
2022/03/09 05:25:06;;;;;;;13.20;4.75;;;;;;;11.49;86.36;101102.69;7384984;19;20006;-82
2022/03/09 05:27:37;;;;;;;16.40;6.15;;;;;;;11.48;86.47;101109.78;7384293;19;20029;-80
2022/03/09 05:30:05;;;;;;;12.95;3.92;;;;;;;11.49;86.46;101108.78;7383593;19;20031;-80
2022/03/09 05:32:32;;;;;;;17.13;6.00;;;;;;;11.49;86.37;101118.50;7381622;19;20447;-80
2022/03/09 05:34:59;;;;;;;12.80;4.50;;;;;;;11.48;85.89;101115.03;7381364;19;20334;-80
2022/03/09 05:37:28;;;;;;;14.70;4.63;;;;;;;11.50;85.97;101123.63;7382599;19;20022;-80
2022/03/09 05:39:55;;;;;;;11.18;4.32;;;;;;;11.51;85.71;101122.66;7380520;19;20002;-81
2022/03/09 05:42:22;;;;;;;14.07;4.38;;;;;;;11.53;85.79;101123.31;7381433;19;20271;-82
2022/03/09 05:44:49;;;;;;;10.55;4.00;;;;;;;11.53;85.33;101123.31;7383064;19;20040;-82
2022/03/09 05:47:37;;;;;;;13.10;4.15;;;;;;;11.52;85.63;101123.50;7380424;19;20022;-80
2022/03/09 05:50:04;;;;;;;17.13;4.57;;;;;;;11.50;85.56;101131.53;7382508;19;20018;-82
2022/03/09 05:52:31;;;;;;;10.18;4.18;;;;;;;11.50;85.65;101131.53;7380114;19;20324;-80
2022/03/09 05:54:58;;;;;;;11.63;3.90;;;;;;;11.51;85.65;101141.09;7382763;19;20081;-82
2022/03/09 05:57:25;;;;;;;16.52;5.70;;;;;;;11.51;85.40;101138.47;7380906;19;20033;-83
2022/03/09 05:59:54;;;;;;;13.00;5.30;;;;;;;11.52;85.50;101148.03;7381212;19;20027;-81
2022/03/09 06:02:21;;;;;;;14.98;4.30;;;;;;;11.56;85.69;101143.28;7382082;19;20073;-81
2022/03/09 06:04:48;;;;;;;9.80;2.35;;;;;;;11.58;85.84;101152.69;7382957;19;20010;-81
2022/03/09 06:07:15;;;;;;;9.63;3.40;;;;;;;11.55;84.66;101163.53;7386425;19;20035;-81
2022/03/09 06:09:42;;;;;;;13.85;2.50;;;;;;;11.52;84.01;101153.31;7385450;19;20301;-81
2022/03/09 06:12:09;;;;;;;15.43;3.67;;;;;;;11.55;83.87;101168.81;7381822;19;20019;-80
2022/03/09 06:14:36;;;;;;;11.48;2.28;;;;;;;11.57;83.92;101166.84;7382024;19;20021;-80
2022/03/09 06:17:04;;;;;;;17.55;3.28;;;;;;;11.61;83.98;101170.00;7381764;19;20037;-80
2022/03/09 06:19:31;;;;;;;14.65;2.80;;;;;;;11.58;83.25;101175.56;7382545;19;20487;-80
2022/03/09 06:21:58;;;;;;;9.48;2.00;;;;;;;11.58;83.41;101171.13;7378605;19;20451;-79
2022/03/09 06:24:25;;;;;;;10.82;1.67;;;;;;;11.60;83.21;101173.63;7381692;19;20102;-81
2022/03/09 06:26:53;;;;;;;10.65;1.40;;;;;;;11.63;82.59;101178.56;7380740;19;20014;-81
2022/03/09 06:29:21;;;;;;;10.75;1.95;;;;;;;11.61;82.56;101175.28;7384717;19;20138;-81
2022/03/09 06:31:48;;;;;;;10.43;1.88;;;;;;;11.61;82.64;101183.19;7384512;19;20010;-82
2022/03/09 06:34:15;;;;;;;11.15;2.55;;;;;;;11.67;83.10;101182.59;7380253;19;20042;-81
2022/03/09 06:36:44;;;;;;;12.20;2.10;;;;;;;11.68;82.81;101178.16;7384780;19;20213;-81
2022/03/09 06:39:13;;;;;;;9.88;1.90;;;;;;;11.66;82.08;101180.94;7381042;19;20128;-82
2022/03/09 06:41:42;;;;;;;12.65;1.85;;;;;;;11.65;82.75;101187.16;7379947;19;20681;-81
2022/03/09 06:44:10;;;;;;;11.52;1.50;;;;;;;11.66;81.87;101185.38;7384548;19;20439;-80
2022/03/09 06:46:37;;;;;;;12.55;2.20;;;;;;;11.67;82.17;101189.66;7378754;19;20014;-81
2022/03/09 06:49:05;;;;;;;10.85;1.50;;;;;;;11.62;81.16;101192.75;7378322;19;20328;-81
2022/03/09 06:51:32;;;;;;;5.88;1.40;;;;;;;11.61;81.49;101196.38;7379200;19;20014;-81
2022/03/09 06:53:59;;;;;;;11.57;1.50;;;;;;;11.62;81.76;101198.03;7386180;19;20153;-81
2022/03/09 06:56:26;;;;;;;8.20;1.17;;;;;;;11.64;81.44;101201.31;7381688;19;20066;-81
2022/03/09 06:58:53;;;;;;;11.48;2.17;;;;;;;11.65;82.10;101202.16;7382562;19;20015;-81
2022/03/09 07:01:22;;;;;;;10.75;1.52;;;;;;;11.69;82.59;101200.88;7380807;19;20025;-81
2022/03/09 07:03:52;;;;;;;16.10;5.38;;;;;;;11.73;82.54;101200.47;7377342;19;20013;-80
2022/03/09 07:06:22;;;;;;;9.95;2.40;;;;;;;11.77;82.56;101208.91;7383541;19;20503;-81
2022/03/09 07:08:52;;;;;;;13.68;3.25;;;;;;;11.71;82.03;101207.66;7382799;19;20018;-79
2022/03/09 07:11:19;;;;;;;9.90;1.73;;;;;;;11.71;82.41;101206.84;7379915;19;20043;-81
2022/03/09 07:13:46;;;;;;;9.57;1.90;;;;;;;11.72;81.90;101214.59;7382604;19;20141;-81
2022/03/09 07:16:13;;;;;;;11.52;2.33;;;;;;;11.73;81.71;101212.81;7384709;19;20549;-81
2022/03/09 07:18:40;;;;;;;9.55;2.78;;;;;;;11.73;81.88;101221.56;7378016;19;20052;-80
2022/03/09 07:21:07;;;;;;;11.27;1.85;;;;;;;11.75;81.38;101219.59;7390748;19;20006;-80
2022/03/09 07:23:35;;;;;;;14.07;2.22;;;;;;;11.80;81.80;101221.78;7382248;19;20480;-82
2022/03/09 07:26:02;;;;;;;16.50;3.28;;;;;;;11.82;81.63;101215.38;7380923;19;20011;-81
2022/03/09 07:28:30;;;;;;;11.75;1.65;;;;;;;11.82;81.60;101218.03;7381004;19;20007;-82
2022/03/09 07:31:00;;;;;;;11.43;3.58;;;;;;;11.86;81.88;101224.63;7387063;19;20025;-83
2022/03/09 07:33:28;;;;;;;10.85;2.33;;;;;;;11.87;81.49;101221.03;7379817;19;20014;-84
2022/03/09 07:36:00;;;;;;;15.98;2.50;;;;;;;11.87;81.36;101220.19;7386448;19;20011;-82
2022/03/09 07:38:30;;;;;;;8.95;2.50;;;;;;;11.83;81.09;101213.56;7383625;19;20027;-81
2022/03/09 07:40:59;;;;;;;17.63;5.70;;;;;;;11.89;81.01;101224.31;7379786;19;20010;-82
2022/03/09 07:43:26;;;;;;;17.48;2.45;;;;;;;11.86;80.66;101222.00;7381877;19;20010;-82
2022/03/09 07:46:09;;;;;;;12.27;3.13;;;;;;;11.85;80.81;101217.72;7383739;19;20460;-84
2022/03/09 07:48:36;;;;;;;13.32;3.00;;;;;;;11.85;81.00;101215.06;7382509;19;20022;-83
2022/03/09 07:51:03;;;;;;;12.75;2.75;;;;;;;11.87;81.31;101217.56;7384706;19;20130;-80
2022/03/09 07:53:31;;;;;;;11.13;2.03;;;;;;;11.91;81.28;101213.63;7379709;19;20086;-84
2022/03/09 07:55:58;;;;;;;12.05;1.95;;;;;;;11.96;82.61;101217.47;7379586;19;20428;-83
2022/03/09 07:58:25;;;;;;;12.63;2.17;;;;;;;12.03;81.85;101222.97;7380368;19;20072;-82
2022/03/09 08:00:52;;;;;;;14.18;2.15;;;;;;;11.99;79.77;101218.97;7381970;19;20126;-81
2022/03/09 08:03:21;;;;;;;13.65;2.47;;;;;;;11.97;79.76;101215.66;7385774;19;20361;-82
2022/03/09 08:06:01;;;;;;;12.60;3.92;;;;;;;12.02;79.80;101218.69;7388281;19;20547;-82
2022/03/09 08:08:30;;;;;;;11.05;1.80;;;;;;;12.02;79.58;101217.84;7388605;19;20081;-81
2022/03/09 08:10:58;;;;;;;8.13;1.75;;;;;;;12.01;79.08;101214.38;7389159;19;20006;-83
2022/03/09 08:13:25;;;;;;;12.85;2.30;;;;;;;12.03;79.56;101219.50;7392697;19;20358;-84
2022/03/09 08:15:53;;;;;;;11.57;1.55;;;;;;;12.03;79.16;101212.44;7390611;19;20022;-82
2022/03/09 08:18:21;;;;;;;12.57;1.92;;;;;;;12.05;78.98;101210.44;7386520;19;20013;-83
2022/03/09 08:20:48;;;;;;;10.50;1.88;;;;;;;12.07;79.28;101211.13;7387885;19;20023;-83
2022/03/09 08:23:15;;;;;;;14.35;2.75;;;;;;;12.05;78.83;101212.25;7386081;19;20010;-82
2022/03/09 08:25:42;;;;;;;10.63;2.05;;;;;;;12.06;78.89;101219.19;7385841;19;20013;-82
2022/03/09 08:28:12;;;;;;;16.25;3.90;;;;;;;12.07;78.37;101215.59;7391654;19;20021;-82
2022/03/09 08:30:40;;;;;;;10.52;2.60;;;;;;;12.12;78.72;101219.41;7396902;19;20031;-82
2022/03/09 08:33:14;;;;;;;12.30;1.67;;;;;;;12.13;78.81;101225.53;7390787;19;20007;-82
2022/03/09 08:35:41;;;;;;;7.85;1.75;;;;;;;12.15;79.09;101224.38;7386895;19;20079;-83
2022/03/09 08:38:09;;;;;;;13.27;2.03;;;;;;;12.23;79.91;101221.00;7387422;19;20031;-82
2022/03/09 08:41:14;;;;;;;10.30;1.45;;;;;;;12.24;78.05;101212.09;7385577;19;20035;-79
2022/03/09 08:43:43;;;;;;;10.05;1.15;;;;;;;12.25;77.78;101214.56;7388640;19;20044;-82
2022/03/09 08:46:11;;;;;;;10.02;1.20;;;;;;;12.24;78.21;101214.75;7387669;19;20418;-82
2022/03/09 08:48:39;;;;;;;12.63;1.08;;;;;;;12.26;77.68;101218.03;7384657;19;20026;-82
2022/03/09 08:51:07;;;;;;;10.75;0.80;;;;;;;12.30;77.83;101217.56;7392269;19;20034;-82
2022/03/09 08:53:35;;;;;;;9.23;1.73;;;;;;;12.31;78.00;101221.03;7391865;19;20452;-82
2022/03/09 08:56:07;;;;;;;12.98;1.13;;;;;;;12.29;76.58;101218.53;7386841;19;20685;-82
2022/03/09 08:58:35;;;;;;;7.20;1.58;;;;;;;12.37;77.73;101221.25;7388253;19;20014;-82
2022/03/09 09:01:04;;;;;;;16.27;1.42;;;;;;;12.33;76.49;101224.38;7384130;19;20006;-82
2022/03/09 09:03:31;;;;;;;9.55;1.00;;;;;;;12.36;76.55;101221.41;7385442;19;20360;-82
2022/03/09 09:06:00;;;;;;;14.88;1.80;;;;;;;12.35;76.75;101228.50;7386578;19;20011;-82
2022/03/09 09:08:28;;;;;;;10.35;0.90;;;;;;;12.42;76.87;101226.06;7388758;19;20022;-82
2022/03/09 09:10:55;;;;;;;7.88;0.95;;;;;;;12.51;77.23;101226.94;7383581;19;20011;-83
2022/03/09 09:13:24;;;;;;;13.45;1.02;;;;;;;12.56;77.03;101230.78;7388547;19;20214;-81
2022/03/09 09:15:51;;;;;;;11.13;0.93;;;;;;;12.60;78.21;101229.47;7384754;19;20007;-82
2022/03/09 09:18:19;;;;;;;8.73;1.23;;;;;;;12.66;78.75;101230.66;7387271;19;20043;-82
2022/03/09 09:20:50;;;;;;;9.23;1.00;;;;;;;12.68;77.34;101229.53;7384983;19;20010;-82
2022/03/09 09:23:18;;;;;;;12.15;1.35;;;;;;;12.69;77.19;101233.00;7388912;19;20018;-82
2022/03/09 09:25:45;;;;;;;14.35;2.80;;;;;;;12.69;76.69;101225.09;7385942;19;20121;-83
2022/03/09 09:28:13;;;;;;;8.70;1.10;;;;;;;12.63;75.33;101237.09;7386310;19;20014;-83
2022/03/09 09:30:40;;;;;;;10.57;1.35;;;;;;;12.66;76.03;101228.03;7390453;19;20036;-82
2022/03/09 09:33:09;;;;;;;10.65;1.17;;;;;;;12.65;75.85;101234.28;7381957;19;20020;-84
2022/03/09 09:35:36;;;;;;;7.55;1.20;;;;;;;12.66;76.61;101238.59;7387518;19;20354;-82
2022/03/09 09:38:06;;;;;;;7.80;1.00;;;;;;;12.68;76.11;101231.34;7383273;19;20450;-83
2022/03/09 09:40:41;;;;;;;8.10;0.95;;;;;;;12.70;75.88;101232.00;7387720;19;20081;-83
2022/03/09 09:43:10;;;;;;;11.43;1.02;;;;;;;12.69;75.33;101236.47;7386943;19;20006;-83
2022/03/09 09:45:38;;;;;;;12.27;2.08;;;;;;;12.73;76.20;101244.91;7386635;19;20047;-80
2022/03/09 09:48:06;;;;;;;19.00;2.50;;;;;;;12.67;75.47;101237.59;7387209;19;20018;-82
2022/03/09 09:50:34;;;;;;;11.30;1.65;;;;;;;12.71;75.29;101231.03;7387944;19;20007;-82
2022/03/09 09:53:05;;;;;;;13.98;1.40;;;;;;;12.74;75.34;101222.81;7382067;19;20011;-81
2022/03/09 09:55:33;;;;;;;10.38;1.63;;;;;;;12.70;75.45;101230.19;7386062;19;20011;-80
2022/03/09 09:58:01;;;;;;;11.00;1.50;;;;;;;12.64;75.18;101230.00;7390207;19;20436;-82
2022/03/09 10:00:28;;;;;;;11.15;0.93;;;;;;;12.61;74.50;101227.66;7385666;19;20549;-84
2022/03/09 10:03:04;;;;;;;12.07;1.38;;;;;;;12.61;75.23;101238.22;7365885;19;20019;-82
2022/03/09 10:05:45;;;;;;;13.63;1.20;;;;;;;12.57;75.26;101227.16;7381873;19;20455;-81
2022/03/09 10:08:27;;;;;;;6.38;1.20;;;;;;;12.64;74.45;101230.84;7387066;19;20324;-80
2022/03/09 10:10:59;;;;;;;11.85;1.75;;;;;;;12.71;74.68;101234.50;7386402;19;20022;-83
2022/03/09 10:13:38;;;;;;;9.65;1.20;;;;;;;12.80;73.67;101233.53;7385375;19;20031;-82
2022/03/09 10:16:21;;;;;;;6.10;0.82;;;;;;;12.92;73.54;101236.75;7385382;19;20526;-82
2022/03/09 10:18:54;;;;;;;12.77;2.67;;;;;;;13.00;72.49;101233.34;7384210;19;20121;-83
2022/03/09 10:21:25;;;;;;;;;;;;;;;13.07;71.39;101221.97;7387374;19;20388;-81
2022/03/09 10:23:55;;;;;;;8.30;1.20;;;;;;;13.17;70.80;101232.44;7382578;19;19986;-81
2022/03/09 10:26:26;;;;;;;9.77;1.55;;;;;;;13.18;69.95;101226.16;7385227;19;20015;-82
2022/03/09 10:29:10;;;;;;;11.18;0.80;;;;;;;13.22;70.90;101223.03;7388764;19;20062;-82
2022/03/09 10:31:39;;;;;;;8.95;0.80;;;;;;;13.23;70.76;101221.22;7386132;19;20022;-82
2022/03/09 10:34:11;;;;;;;10.20;1.05;;;;;;;13.29;71.33;101215.31;7383444;19;20018;-82
2022/03/09 10:36:55;;;;;;;5.85;0.93;;;;;;;13.36;70.96;101218.13;7385531;19;20031;-78
2022/03/09 10:39:24;;;;;;;10.60;0.88;;;;;;;13.35;69.79;101219.13;7386590;19;20369;-79
2022/03/09 10:41:52;;;;;;;9.05;0.50;;;;;;;13.39;69.22;101215.16;7379816;19;20019;-80
2022/03/09 10:44:19;;;;;;;8.00;1.45;;;;;;;13.44;69.34;101215.50;7384543;19;20010;-80
2022/03/09 10:46:50;;;;;;;12.75;0.80;;;;;;;13.41;69.04;101216.63;7381663;19;20022;-81
2022/03/09 10:49:24;;;;;;;8.13;0.70;;;;;;;13.47;68.96;101228.38;7384506;19;20038;-81
2022/03/09 10:51:52;;;;;;;10.85;1.27;;;;;;;13.46;67.52;101216.19;7382127;19;20017;-80
2022/03/09 10:54:22;;;;;;;8.25;0.77;;;;;;;13.46;67.38;101208.25;7383759;19;20234;-79
2022/03/09 10:56:50;;;;;;;7.13;0.93;;;;;;;13.42;67.73;101214.81;7382345;19;20041;-80
2022/03/09 10:59:21;;;;;;;9.98;0.98;;;;;;;13.46;67.84;101219.63;7382614;19;20044;-81
2022/03/09 11:02:07;;;;;;;5.32;0.77;;;;;;;13.57;68.43;101214.03;7378610;19;20021;-79
2022/03/09 11:04:37;;;;;;;6.57;0.50;;;;;;;13.69;66.84;101209.28;7379333;19;20021;-80
2022/03/09 11:07:04;;;;;;;10.00;0.93;;;;;;;13.76;66.70;101210.28;7380954;19;20007;-79
2022/03/09 11:09:37;;;;;;;4.18;0.43;;;;;;;13.86;67.55;101215.41;7383202;19;20376;-79
2022/03/09 11:12:05;;;;;;;;;;;;;;;13.83;65.34;101213.06;7382174;19;20010;-81
2022/03/09 11:14:32;;;;;;;10.68;0.77;;;;;;;13.81;64.42;101217.72;7385572;19;19935;-80
2022/03/09 11:17:00;;;;;;;5.28;0.90;;;;;;;13.80;64.62;101216.88;7383038;19;20459;-79
2022/03/09 11:19:28;;;;;;;5.70;0.52;;;;;;;13.74;64.96;101214.06;7378489;19;20007;-78
2022/03/09 11:21:55;;;;;;;8.05;0.98;;;;;;;13.79;65.04;101222.34;7377603;19;20018;-79
2022/03/09 11:24:22;;;;;;;7.80;0.50;;;;;;;13.85;65.57;101208.47;7384857;19;20340;-79
2022/03/09 11:26:53;;;;;;;5.90;0.40;;;;;;;13.87;65.40;101214.41;7383407;19;20395;-79
2022/03/09 11:29:31;;;;;;;8.98;0.40;;;;;;;13.95;66.06;101206.47;7380557;19;20010;-79